createdAt,value
2019-03-22T00:02:12.856Z,17.60
2019-03-22T00:04:43.499Z,18.10
2019-03-22T00:07:14.138Z,18.70
2019-03-22T00:09:44.736Z,18.43
2019-03-22T00:12:15.330Z,17.77
2019-03-22T00:14:45.946Z,18.40
2019-03-22T00:17:16.540Z,18.20
2019-03-22T00:19:47.186Z,19.77
2019-03-22T00:22:17.764Z,18.33
2019-03-22T00:24:48.380Z,19.00
2019-03-22T00:27:19.120Z,18.23
2019-03-22T00:29:49.747Z,16.87
2019-03-22T00:32:20.354Z,17.83
2019-03-22T00:34:50.952Z,17.03
2019-03-22T00:37:21.568Z,17.30
2019-03-22T00:39:52.194Z,18.87
2019-03-22T00:42:25.170Z,18.10
2019-03-22T00:44:55.773Z,18.10
2019-03-22T00:47:26.351Z,18.50
2019-03-22T00:49:56.975Z,18.20
2019-03-22T00:52:27.554Z,17.47
2019-03-22T00:54:58.178Z,18.93
2019-03-22T00:57:29.004Z,18.47
2019-03-22T00:59:59.558Z,18.20
2019-03-22T01:02:30.114Z,18.50
2019-03-22T01:05:00.770Z,19.20
2019-03-22T01:07:31.332Z,17.77
2019-03-22T01:10:02.850Z,20.10
2019-03-22T01:12:33.488Z,18.83
2019-03-22T01:15:04.282Z,18.87
2019-03-22T01:17:34.851Z,18.57
2019-03-22T01:20:06.360Z,17.17
2019-03-22T01:22:36.947Z,18.57
2019-03-22T01:25:07.638Z,19.20
2019-03-22T01:27:40.832Z,20.10
2019-03-22T01:30:11.032Z,19.30
2019-03-22T01:32:41.623Z,19.23
2019-03-22T01:35:12.310Z,17.87
2019-03-22T01:37:42.901Z,18.23
2019-03-22T01:40:13.645Z,19.20
2019-03-22T01:42:44.321Z,19.77
2019-03-22T01:45:15.354Z,19.57
2019-03-22T01:47:45.914Z,20.30
2019-03-22T01:50:16.570Z,18.73
2019-03-22T01:52:47.200Z,19.93
2019-03-22T01:55:17.815Z,20.17
2019-03-22T01:57:53.704Z,18.20
2019-03-22T02:00:20.884Z,19.80
2019-03-22T02:02:51.484Z,19.40
2019-03-22T02:05:22.122Z,19.83
2019-03-22T02:07:52.722Z,19.27
2019-03-22T02:10:23.342Z,19.93
2019-03-22T02:12:53.924Z,20.70
2019-03-22T02:15:24.536Z,22.23
2019-03-22T02:17:55.182Z,21.00
2019-03-22T02:20:25.800Z,22.07
2019-03-22T02:22:56.474Z,19.60
2019-03-22T02:25:27.077Z,19.20
2019-03-22T02:28:04.225Z,19.77
2019-03-22T02:30:29.999Z,20.43
2019-03-22T02:33:00.573Z,19.63
2019-03-22T02:35:31.173Z,20.63
2019-03-22T02:38:01.758Z,19.63
2019-03-22T02:40:32.401Z,19.93
2019-03-22T02:43:03.004Z,19.43
2019-03-22T02:45:33.614Z,20.53
2019-03-22T02:48:04.321Z,20.37
2019-03-22T02:50:34.958Z,18.83
2019-03-22T02:53:05.548Z,18.87
2019-03-22T02:55:36.219Z,19.07
2019-03-22T02:58:19.893Z,18.97
2019-03-22T03:00:39.317Z,17.67
2019-03-22T03:03:09.981Z,17.73
2019-03-22T03:05:40.628Z,17.67
2019-03-22T03:08:11.222Z,17.60
2019-03-22T03:10:41.844Z,18.27
2019-03-22T03:13:12.423Z,18.53
2019-03-22T03:15:43.045Z,17.43
2019-03-22T03:18:13.683Z,17.13
2019-03-22T03:20:44.338Z,17.37
2019-03-22T03:23:14.884Z,17.33
2019-03-22T03:25:45.494Z,17.67
2019-03-22T03:28:16.249Z,17.33
2019-03-22T03:30:46.868Z,16.97
2019-03-22T03:33:17.534Z,18.47
2019-03-22T03:35:48.103Z,17.00
2019-03-22T03:38:18.753Z,16.93
2019-03-22T03:40:49.388Z,17.43
2019-03-22T03:43:19.977Z,18.43
2019-03-22T03:45:50.678Z,18.80
2019-03-22T03:48:21.286Z,18.10
2019-03-22T03:50:51.950Z,19.20
2019-03-22T03:53:22.545Z,17.43
2019-03-22T03:55:53.194Z,18.63
2019-03-22T03:58:23.773Z,17.97
2019-03-22T04:00:54.424Z,18.60
2019-03-22T04:03:25.127Z,18.80
2019-03-22T04:05:55.718Z,17.60
2019-03-22T04:08:26.314Z,17.87
2019-03-22T04:10:56.925Z,18.93
2019-03-22T04:13:27.511Z,17.83
2019-03-22T04:15:58.141Z,18.27
2019-03-22T04:18:28.739Z,18.93
2019-03-22T04:20:59.340Z,17.83
2019-03-22T04:23:30.009Z,19.03
2019-03-22T04:26:00.630Z,17.13
2019-03-22T04:28:31.187Z,18.97
2019-03-22T04:31:01.876Z,17.80
2019-03-22T04:33:32.512Z,18.50
2019-03-22T04:36:03.165Z,18.73
2019-03-22T04:38:33.748Z,19.00
2019-03-22T04:41:04.360Z,18.90
2019-03-22T04:43:34.937Z,19.33
2019-03-22T04:46:06.184Z,18.07
2019-03-22T04:48:38.083Z,19.03
2019-03-22T04:51:09.718Z,18.90
2019-03-22T04:53:46.938Z,17.57
2019-03-22T04:56:18.974Z,17.03
2019-03-22T04:58:51.447Z,17.93
2019-03-22T05:01:23.285Z,18.40
2019-03-22T05:03:54.439Z,18.27
2019-03-22T05:06:25.263Z,16.83
2019-03-22T05:08:56.893Z,18.03
2019-03-22T05:11:28.012Z,18.83
2019-03-22T05:13:59.568Z,18.43
2019-03-22T05:16:30.767Z,18.80
2019-03-22T05:19:02.794Z,17.80
2019-03-22T05:21:33.820Z,17.37
2019-03-22T05:24:05.699Z,19.63
2019-03-22T05:26:37.808Z,19.20
2019-03-22T05:29:08.726Z,18.73
2019-03-22T05:31:58.693Z,18.17
2019-03-22T05:34:29.463Z,17.83
2019-03-22T05:37:00.130Z,17.60
2019-03-22T05:39:30.726Z,18.20
2019-03-22T05:42:03.282Z,18.83
2019-03-22T05:44:33.908Z,18.37
2019-03-22T05:47:04.491Z,18.60
2019-03-22T05:49:35.116Z,18.17
2019-03-22T05:52:05.861Z,17.87
2019-03-22T05:54:36.440Z,17.63
2019-03-22T05:57:13.434Z,17.73
2019-03-22T05:59:42.905Z,17.07
2019-03-22T06:02:11.906Z,17.80
2019-03-22T06:04:42.522Z,17.30
2019-03-22T06:07:13.198Z,17.57
2019-03-22T06:09:43.766Z,18.00
2019-03-22T06:12:14.368Z,18.70
2019-03-22T06:14:44.980Z,18.60
2019-03-22T06:17:15.600Z,18.40
2019-03-22T06:19:46.184Z,19.30
2019-03-22T06:22:16.816Z,17.87
2019-03-22T06:24:47.466Z,18.33
2019-03-22T06:27:18.098Z,19.63
2019-03-22T06:29:54.029Z,18.90
2019-03-22T06:32:21.055Z,17.70
2019-03-22T06:34:51.662Z,19.17
2019-03-22T06:37:22.263Z,18.77
2019-03-22T06:39:52.944Z,18.63
2019-03-22T06:42:23.514Z,19.50
2019-03-22T06:44:54.113Z,17.07
2019-03-22T06:47:24.670Z,18.03
2019-03-22T06:49:55.258Z,18.33
2019-03-22T06:52:25.846Z,17.73
2019-03-22T06:54:56.480Z,18.17
2019-03-22T06:57:27.090Z,18.73
2019-03-22T07:00:06.288Z,16.60
2019-03-22T07:02:30.040Z,17.03
2019-03-22T07:05:00.635Z,18.43
2019-03-22T07:07:31.237Z,18.33
2019-03-22T07:10:02.682Z,19.07
2019-03-22T07:12:33.264Z,16.70
2019-03-22T07:15:06.187Z,17.53
2019-03-22T07:17:36.750Z,17.30
2019-03-22T07:20:07.502Z,17.77
2019-03-22T07:22:38.084Z,19.27
2019-03-22T07:25:08.703Z,18.33
2019-03-22T07:27:39.277Z,18.50
2019-03-22T07:30:18.491Z,18.80
2019-03-22T07:32:42.273Z,17.87
2019-03-22T07:35:12.960Z,17.03
2019-03-22T07:37:43.539Z,18.27
2019-03-22T07:40:14.195Z,18.73
2019-03-22T07:42:44.805Z,17.90
2019-03-22T07:45:15.399Z,18.90
2019-03-22T07:47:45.961Z,18.00
2019-03-22T07:50:16.651Z,18.47
2019-03-22T07:52:47.197Z,18.33
2019-03-22T07:55:17.811Z,18.77
2019-03-22T07:57:48.372Z,17.63
2019-03-22T08:00:30.174Z,17.53
2019-03-22T08:02:51.291Z,18.63
2019-03-22T08:05:21.905Z,18.87
2019-03-22T08:07:52.503Z,18.63
2019-03-22T08:10:23.147Z,17.70
2019-03-22T08:12:53.729Z,18.50
2019-03-22T08:15:32.205Z,20.37
2019-03-22T08:18:02.912Z,16.60
2019-03-22T08:20:33.488Z,18.60
2019-03-22T08:23:05.629Z,18.27
2019-03-22T08:25:36.239Z,17.77
2019-03-22T08:28:06.807Z,20.87
2019-03-22T08:30:42.986Z,19.63
2019-03-22T08:33:09.715Z,19.90
2019-03-22T08:35:40.367Z,20.07
2019-03-22T08:38:11.090Z,18.30
2019-03-22T08:40:42.182Z,16.80
2019-03-22T08:43:12.826Z,18.73
2019-03-22T08:45:43.538Z,19.40
2019-03-22T08:48:14.189Z,19.17
2019-03-22T08:50:44.947Z,18.67
2019-03-22T08:53:33.347Z,19.07
2019-03-22T08:56:04.020Z,18.60
2019-03-22T08:58:34.799Z,18.83
2019-03-22T09:01:05.845Z,19.50
2019-03-22T09:03:36.518Z,19.93
2019-03-22T09:06:07.975Z,19.73
2019-03-22T09:08:38.741Z,19.90
2019-03-22T09:11:09.423Z,20.27
2019-03-22T09:13:40.085Z,19.97
2019-03-22T09:16:10.753Z,20.77
2019-03-22T09:18:41.428Z,18.90
2019-03-22T09:21:12.927Z,20.50
2019-03-22T09:23:43.571Z,20.70
2019-03-22T09:26:14.247Z,21.20
2019-03-22T09:28:45.010Z,21.47
2019-03-22T09:31:15.618Z,21.67
2019-03-22T09:33:46.146Z,21.00
2019-03-22T09:36:16.724Z,19.63
2019-03-22T09:38:47.319Z,22.07
2019-03-22T09:41:18.006Z,22.77
2019-03-22T09:43:48.580Z,20.03
2019-03-22T09:46:19.246Z,21.33
2019-03-22T09:48:49.858Z,23.00
2019-03-22T09:51:20.503Z,23.07
2019-03-22T09:53:51.036Z,22.87
2019-03-22T09:56:21.608Z,24.00
2019-03-22T09:58:52.180Z,23.37
2019-03-22T10:01:24.035Z,23.80
2019-03-22T10:03:55.044Z,25.90
2019-03-22T10:06:25.620Z,22.87
2019-03-22T10:08:56.161Z,26.57
2019-03-22T10:11:26.769Z,25.07
2019-03-22T10:13:57.462Z,27.43
2019-03-22T10:16:28.098Z,26.93
2019-03-22T10:18:58.779Z,27.43
2019-03-22T10:21:29.420Z,26.90
2019-03-22T10:24:00.109Z,26.20
2019-03-22T10:26:30.751Z,26.90
2019-03-22T10:29:01.305Z,24.77
2019-03-22T10:31:37.029Z,26.97
2019-03-22T10:34:04.242Z,26.17
2019-03-22T10:36:34.927Z,25.90
2019-03-22T10:39:08.509Z,25.93
2019-03-22T10:41:39.104Z,25.87
2019-03-22T10:44:09.845Z,25.50
2019-03-22T10:46:40.539Z,26.10
2019-03-22T10:49:12.143Z,25.93
2019-03-22T10:51:55.818Z,28.03
2019-03-22T10:54:15.060Z,27.10
2019-03-22T10:56:45.648Z,27.00
2019-03-22T10:59:16.265Z,27.07
2019-03-22T11:02:02.234Z,26.97
2019-03-22T11:04:19.253Z,27.97
2019-03-22T11:06:49.846Z,27.90
2019-03-22T11:09:20.556Z,28.83
2019-03-22T11:11:51.908Z,27.90
2019-03-22T11:14:22.623Z,28.50
2019-03-22T11:16:53.267Z,28.67
2019-03-22T11:19:23.950Z,29.03
2019-03-22T11:21:54.509Z,29.97
2019-03-22T11:24:25.142Z,30.90
2019-03-22T11:26:55.749Z,31.03
2019-03-22T11:29:26.390Z,27.80
2019-03-22T11:31:57.093Z,29.73
2019-03-22T11:34:27.696Z,30.27
2019-03-22T11:36:58.385Z,30.53
2019-03-22T11:39:28.987Z,27.73
2019-03-22T11:41:59.560Z,29.03
2019-03-22T11:44:30.162Z,29.17
2019-03-22T11:47:00.751Z,32.50
2019-03-22T11:49:31.367Z,30.60
2019-03-22T11:52:01.920Z,31.97
2019-03-22T11:54:32.504Z,33.03
2019-03-22T11:57:03.186Z,31.80
2019-03-22T11:59:33.800Z,32.97
2019-03-22T12:02:06.218Z,31.30
2019-03-22T12:04:36.860Z,31.57
2019-03-22T12:07:07.452Z,33.63
2019-03-22T12:09:38.075Z,35.73
2019-03-22T12:12:08.658Z,34.00
2019-03-22T12:14:39.272Z,34.07
2019-03-22T12:17:09.882Z,34.07
2019-03-22T12:19:40.530Z,35.10
2019-03-22T12:22:11.136Z,33.30
2019-03-22T12:24:41.839Z,34.73
2019-03-22T12:27:12.575Z,31.73
2019-03-22T12:29:43.274Z,31.23
2019-03-22T12:32:13.892Z,33.43
2019-03-22T12:34:44.499Z,33.77
2019-03-22T12:37:15.119Z,32.57
2019-03-22T12:39:45.895Z,32.97
2019-03-22T12:42:16.452Z,33.87
2019-03-22T12:44:47.089Z,33.97
2019-03-22T12:47:17.731Z,34.23
2019-03-22T12:49:48.368Z,33.73
2019-03-22T12:52:19.069Z,32.23
2019-03-22T12:54:49.678Z,35.27
2019-03-22T12:57:20.325Z,32.30
2019-03-22T12:59:51.105Z,34.67
2019-03-22T13:02:21.731Z,35.40
2019-03-22T13:04:52.384Z,33.00
2019-03-22T13:07:23.027Z,32.77
2019-03-22T13:09:53.780Z,35.17
2019-03-22T13:12:24.389Z,33.73
2019-03-22T13:14:56.683Z,34.50
2019-03-22T13:17:27.478Z,32.17
2019-03-22T13:19:58.106Z,34.87
2019-03-22T13:22:28.691Z,34.30
2019-03-22T13:24:59.319Z,34.50
2019-03-22T13:27:29.973Z,34.07
2019-03-22T13:30:00.573Z,33.33
2019-03-22T13:32:31.197Z,34.47
2019-03-22T13:35:01.770Z,35.93
2019-03-22T13:37:32.344Z,35.57
2019-03-22T13:40:03.022Z,34.53
2019-03-22T13:42:33.572Z,34.07
2019-03-22T13:45:04.591Z,31.63
2019-03-22T13:47:35.348Z,32.77
2019-03-22T13:50:07.772Z,33.03
2019-03-22T13:52:38.431Z,32.97
2019-03-22T13:55:09.209Z,34.07
2019-03-22T13:57:39.785Z,36.00
2019-03-22T14:00:10.599Z,32.77
2019-03-22T14:02:41.250Z,33.37
2019-03-22T14:05:11.844Z,32.63
2019-03-22T14:07:42.460Z,32.00
2019-03-22T14:10:21.688Z,33.50
2019-03-22T14:12:52.315Z,31.80
2019-03-22T14:15:22.968Z,31.63
2019-03-22T14:17:53.517Z,31.60
2019-03-22T14:20:24.105Z,32.47
2019-03-22T14:22:54.680Z,32.80
2019-03-22T14:25:25.288Z,32.77
2019-03-22T14:27:55.861Z,31.10
2019-03-22T14:30:26.498Z,31.63
2019-03-22T14:32:57.079Z,31.87
2019-03-22T14:35:28.582Z,32.30
2019-03-22T14:37:59.345Z,30.40
2019-03-22T14:40:30.008Z,32.30
2019-03-22T14:43:00.579Z,31.20
2019-03-22T14:45:31.187Z,30.50
2019-03-22T14:48:01.759Z,29.17
2019-03-22T14:50:32.324Z,28.53
2019-03-22T14:53:02.911Z,30.93
2019-03-22T14:55:33.523Z,29.70
2019-03-22T14:58:04.097Z,28.90
2019-03-22T15:00:34.646Z,30.67
2019-03-22T15:03:24.124Z,32.73
2019-03-22T15:05:56.060Z,30.23
2019-03-22T15:08:26.621Z,29.07
2019-03-22T15:10:57.203Z,29.00
2019-03-22T15:13:45.768Z,28.53
2019-03-22T15:16:44.180Z,28.83
2019-03-22T15:19:37.231Z,27.63
2019-03-22T15:22:25.363Z,28.70
2019-03-22T15:25:17.890Z,29.30
2019-03-22T15:28:10.613Z,29.37
2019-03-22T15:31:09.291Z,28.67
2019-03-22T15:33:48.316Z,27.27
2019-03-22T15:36:36.823Z,28.57
2019-03-22T15:42:04.273Z,28.87
2019-03-22T15:44:34.804Z,28.00
2019-03-22T15:47:05.426Z,27.37
2019-03-22T15:49:35.992Z,25.87
2019-03-22T15:52:06.568Z,28.40
2019-03-22T15:54:37.124Z,27.53
2019-03-22T15:57:07.832Z,29.00
2019-03-22T15:59:39.387Z,27.60
2019-03-22T16:02:10.141Z,28.50
2019-03-22T16:04:40.741Z,26.10
2019-03-22T16:07:11.345Z,24.27
2019-03-22T16:09:41.902Z,25.43
2019-03-22T16:12:12.560Z,27.33
2019-03-22T16:14:43.164Z,25.87
2019-03-22T16:17:13.845Z,26.33
2019-03-22T16:19:44.458Z,31.23
2019-03-22T16:22:15.014Z,28.90
2019-03-22T16:24:45.630Z,29.57
2019-03-22T16:27:16.175Z,28.30
2019-03-22T16:29:46.790Z,29.27
2019-03-22T16:32:17.358Z,28.47
2019-03-22T16:34:47.950Z,29.03
2019-03-22T16:37:18.513Z,32.70
2019-03-22T16:39:49.138Z,30.00
2019-03-22T16:42:19.724Z,30.60
2019-03-22T16:44:50.337Z,29.83
2019-03-22T16:47:20.900Z,28.80
2019-03-22T16:49:51.476Z,29.37
2019-03-22T16:52:22.010Z,28.53
2019-03-22T16:54:52.611Z,28.50
2019-03-22T16:57:23.200Z,28.30
2019-03-22T16:59:53.848Z,28.93
2019-03-22T17:02:24.432Z,28.47
2019-03-22T17:04:55.004Z,29.20
2019-03-22T17:07:25.557Z,28.00
2019-03-22T17:09:56.179Z,28.70
2019-03-22T17:12:26.802Z,28.50
2019-03-22T17:14:57.384Z,28.70
2019-03-22T17:17:27.933Z,28.77
2019-03-22T17:19:58.545Z,28.77
2019-03-22T17:22:29.107Z,29.00
2019-03-22T17:24:59.695Z,28.00
2019-03-22T17:27:30.261Z,28.63
2019-03-22T17:30:02.373Z,27.87
2019-03-22T17:32:32.979Z,32.08
2019-03-22T17:35:03.618Z,29.37
2019-03-22T17:37:34.225Z,27.27
2019-03-22T17:40:05.153Z,29.77
2019-03-22T17:42:35.801Z,27.70
2019-03-22T17:45:07.229Z,27.20
2019-03-22T17:47:37.836Z,28.87
2019-03-22T17:50:08.608Z,28.00
2019-03-22T17:52:39.263Z,28.10
2019-03-22T17:55:11.307Z,27.37
2019-03-22T17:57:41.907Z,27.47
2019-03-22T18:00:13.154Z,29.73
2019-03-22T18:02:43.803Z,29.13
2019-03-22T18:05:14.845Z,30.13
2019-03-22T18:07:45.454Z,28.30
2019-03-22T18:10:16.198Z,28.53
2019-03-22T18:12:46.813Z,28.83
2019-03-22T18:15:17.635Z,28.40
2019-03-22T18:17:48.246Z,30.67
2019-03-22T18:20:18.849Z,28.57
2019-03-22T18:22:49.540Z,29.93
2019-03-22T18:25:20.077Z,29.10
2019-03-22T18:27:50.757Z,27.97
2019-03-22T18:30:21.351Z,29.83
2019-03-22T18:32:51.983Z,30.97
2019-03-22T18:35:22.680Z,28.60
2019-03-22T18:37:53.304Z,31.50
2019-03-22T18:40:23.922Z,29.50
2019-03-22T18:42:54.531Z,32.37
2019-03-22T18:45:25.117Z,33.43
2019-03-22T18:47:55.714Z,31.53
2019-03-22T18:50:26.307Z,32.53
2019-03-22T18:52:56.909Z,31.73
2019-03-22T18:55:27.535Z,31.37
2019-03-22T18:57:58.243Z,33.70
2019-03-22T19:00:28.939Z,32.83
2019-03-22T19:02:59.714Z,33.87
2019-03-22T19:05:30.474Z,32.60
2019-03-22T19:08:05.754Z,34.10
2019-03-22T19:10:36.376Z,34.77
2019-03-22T19:13:07.884Z,34.23
2019-03-22T19:15:38.551Z,32.10
2019-03-22T19:18:09.230Z,32.77
2019-03-22T19:20:39.925Z,34.83
2019-03-22T19:23:10.699Z,32.90
2019-03-22T19:25:41.395Z,32.40
2019-03-22T19:28:12.132Z,34.07
2019-03-22T19:30:42.806Z,31.60
2019-03-22T19:33:13.472Z,33.87
2019-03-22T19:35:44.158Z,33.73
2019-03-22T19:38:14.812Z,33.70
2019-03-22T19:40:45.576Z,31.73
2019-03-22T19:43:16.365Z,34.07
2019-03-22T19:45:46.985Z,36.57
2019-03-22T19:48:17.689Z,36.80
2019-03-22T19:50:48.271Z,33.27
2019-03-22T19:53:18.896Z,35.53
2019-03-22T19:55:49.458Z,32.37
2019-03-22T19:58:20.059Z,34.60
2019-03-22T20:00:50.671Z,33.23
2019-03-22T20:03:21.932Z,33.07
2019-03-22T20:05:52.603Z,32.07
2019-03-22T20:08:23.269Z,32.07
2019-03-22T20:10:53.877Z,42.55
2019-03-22T20:13:24.524Z,36.03
2019-03-22T20:15:55.137Z,33.87
2019-03-22T20:18:25.743Z,33.30
2019-03-22T20:20:56.334Z,34.27
2019-03-22T20:23:26.926Z,31.30
2019-03-22T20:25:57.534Z,32.63
2019-03-22T20:28:28.130Z,31.97
2019-03-22T20:30:58.707Z,32.93
2019-03-22T20:33:29.314Z,32.53
2019-03-22T20:35:59.930Z,31.23
2019-03-22T20:38:30.533Z,32.70
2019-03-22T20:41:01.115Z,32.23
2019-03-22T20:43:31.751Z,31.77
2019-03-22T20:46:02.387Z,33.27
2019-03-22T20:48:32.978Z,32.33
2019-03-22T20:51:03.717Z,33.00
2019-03-22T20:53:34.285Z,32.93
2019-03-22T20:56:04.952Z,32.77
2019-03-22T20:58:35.645Z,33.53
2019-03-22T21:01:06.270Z,33.50
2019-03-22T21:03:36.904Z,31.43
2019-03-22T21:06:07.670Z,30.63
2019-03-22T21:08:38.288Z,31.30
2019-03-22T21:11:08.901Z,31.83
2019-03-22T21:13:39.470Z,33.73
2019-03-22T21:16:10.102Z,31.47
2019-03-22T21:18:40.709Z,32.63
2019-03-22T21:21:11.382Z,32.80
2019-03-22T21:23:41.984Z,32.33
2019-03-22T21:26:12.620Z,34.80
2019-03-22T21:28:43.199Z,33.13
2019-03-22T21:31:13.918Z,31.80
2019-03-22T21:33:44.502Z,41.80
2019-03-22T21:36:15.140Z,37.13
2019-03-22T21:38:45.790Z,34.90
2019-03-22T21:41:16.403Z,33.20
2019-03-22T21:43:47.023Z,33.67
2019-03-22T21:46:17.790Z,34.47
2019-03-22T21:48:48.477Z,32.80
2019-03-22T21:51:19.108Z,34.03
2019-03-22T21:53:49.727Z,31.77
2019-03-22T21:56:20.359Z,33.47
2019-03-22T21:58:50.994Z,32.77
2019-03-22T22:01:21.612Z,34.80
2019-03-22T22:03:52.280Z,33.40
2019-03-22T22:06:23.026Z,32.93
2019-03-22T22:08:53.618Z,34.50
2019-03-22T22:11:25.030Z,31.73
2019-03-22T22:13:55.669Z,33.27
2019-03-22T22:16:26.324Z,33.87
2019-03-22T22:18:57.040Z,33.83
2019-03-22T22:21:27.757Z,33.33
2019-03-22T22:23:58.459Z,33.37
2019-03-22T22:26:29.108Z,33.17
2019-03-22T22:28:59.750Z,32.63
2019-03-22T22:31:30.427Z,33.73
2019-03-22T22:34:01.132Z,32.43
2019-03-22T22:36:31.816Z,31.87
2019-03-22T22:39:02.458Z,32.20
2019-03-22T22:41:33.227Z,33.10
2019-03-22T22:44:03.830Z,34.13
2019-03-22T22:46:34.456Z,32.80
2019-03-22T22:49:05.162Z,33.43
2019-03-22T22:51:35.782Z,30.93
2019-03-22T22:54:06.396Z,30.90
2019-03-22T22:56:37.018Z,32.50
2019-03-22T22:59:07.746Z,31.83
2019-03-22T23:01:38.352Z,33.30
2019-03-22T23:04:09.000Z,33.27
2019-03-22T23:06:39.684Z,32.37
2019-03-22T23:09:10.915Z,32.53
2019-03-22T23:11:41.606Z,31.43
2019-03-22T23:14:12.251Z,32.27
2019-03-22T23:16:42.934Z,32.60
2019-03-22T23:19:13.487Z,32.53
2019-03-22T23:21:45.808Z,31.07
2019-03-22T23:24:15.628Z,33.70
2019-03-22T23:26:45.500Z,33.23
2019-03-22T23:29:15.321Z,32.47
2019-03-22T23:31:45.163Z,32.20
2019-03-22T23:34:14.961Z,32.60
2019-03-22T23:36:44.760Z,33.13
2019-03-22T23:39:14.585Z,32.13
2019-03-22T23:41:44.368Z,32.57
2019-03-22T23:44:14.186Z,32.67
2019-03-22T23:46:43.990Z,32.10
2019-03-22T23:49:13.854Z,32.90
2019-03-22T23:51:43.669Z,31.93
2019-03-22T23:54:13.483Z,32.30
2019-03-22T23:56:43.261Z,31.40
2019-03-22T23:59:13.092Z,33.77
